createdAt,value
2017-10-31T00:00:06.728Z,8.01
2017-10-31T00:01:15.265Z,8.06
2017-10-31T00:02:25.093Z,8.06
2017-10-31T00:03:33.975Z,8.1
2017-10-31T00:04:42.506Z,8.04
2017-10-31T00:05:51.048Z,8.04
2017-10-31T00:06:59.581Z,8.1
2017-10-31T00:08:08.456Z,8.09
2017-10-31T00:09:17.338Z,8.19
2017-10-31T00:10:26.210Z,8.14
2017-10-31T00:11:35.086Z,8.11
2017-10-31T00:12:43.969Z,8.11
2017-10-31T00:13:52.558Z,8.17
2017-10-31T00:15:01.096Z,8.16
2017-10-31T00:16:09.973Z,8.13
2017-10-31T00:17:18.508Z,8.17
2017-10-31T00:18:27.387Z,8.1
2017-10-31T00:19:35.919Z,8.16
2017-10-31T00:20:44.795Z,8.13
2017-10-31T00:21:53.668Z,8.13
2017-10-31T00:23:02.544Z,8.14
2017-10-31T00:24:11.083Z,8.13
2017-10-31T00:25:20.633Z,8.21
2017-10-31T00:26:29.853Z,8.26
2017-10-31T00:27:39.059Z,8.24
2017-10-31T00:28:48.277Z,8.22
2017-10-31T00:29:57.148Z,8.17
2017-10-31T00:31:06.021Z,8.26
2017-10-31T00:32:14.892Z,8.21
2017-10-31T00:33:23.429Z,8.24
2017-10-31T00:34:32.640Z,8.25
2017-10-31T00:35:41.512Z,8.28
2017-10-31T00:36:50.049Z,8.22
2017-10-31T00:37:58.586Z,8.24
2017-10-31T00:39:07.459Z,8.31
2017-10-31T00:40:16.000Z,8.28
2017-10-31T00:41:24.540Z,8.32
2017-10-31T00:42:33.415Z,8.35
2017-10-31T00:43:42.644Z,8.36
2017-10-31T00:44:51.503Z,8.36
2017-10-31T00:46:00.041Z,8.36
2017-10-31T00:47:08.580Z,8.36
2017-10-31T00:48:17.459Z,8.35
2017-10-31T00:49:26.334Z,8.34
2017-10-31T00:50:35.208Z,8.35
2017-10-31T00:51:44.427Z,8.36
2017-10-31T00:52:52.968Z,8.43
2017-10-31T00:54:01.503Z,8.35
2017-10-31T00:55:10.388Z,8.35
2017-10-31T00:56:19.597Z,8.26
2017-10-31T00:57:28.135Z,8.36
2017-10-31T00:58:36.674Z,8.36
2017-10-31T00:59:45.551Z,8.34
2017-10-31T01:00:54.434Z,8.35
2017-10-31T01:02:03.647Z,8.4
2017-10-31T01:03:12.536Z,8.4
2017-10-31T01:04:21.402Z,8.49
2017-10-31T01:05:30.277Z,8.42
2017-10-31T01:06:39.487Z,8.49
2017-10-31T01:07:48.026Z,8.35
2017-10-31T01:08:57.238Z,8.47
2017-10-31T01:10:06.447Z,8.4
2017-10-31T01:11:15.318Z,8.42
2017-10-31T01:12:24.193Z,8.43
2017-10-31T01:13:33.403Z,8.43
2017-10-31T01:14:41.940Z,8.46
2017-10-31T01:15:50.816Z,8.44
2017-10-31T01:17:00.025Z,8.53
2017-10-31T01:18:08.563Z,8.44
2017-10-31T01:19:17.777Z,8.43
2017-10-31T01:20:26.656Z,8.44
2017-10-31T01:21:36.200Z,8.47
2017-10-31T01:22:45.409Z,8.43
2017-10-31T01:23:54.282Z,8.57
2017-10-31T01:25:03.161Z,8.49
2017-10-31T01:26:12.371Z,8.49
2017-10-31T01:27:21.243Z,8.52
2017-10-31T01:28:30.117Z,8.58
2017-10-31T01:29:38.991Z,8.5
2017-10-31T01:30:48.202Z,8.49
2017-10-31T01:31:57.414Z,8.47
2017-10-31T01:33:05.952Z,8.53
2017-10-31T01:34:14.490Z,8.49
2017-10-31T01:35:23.705Z,8.52
2017-10-31T01:36:32.924Z,8.5
2017-10-31T01:37:42.138Z,8.57
2017-10-31T01:38:51.686Z,8.53
2017-10-31T01:40:00.561Z,8.54
2017-10-31T01:41:09.434Z,8.5
2017-10-31T01:42:18.307Z,8.54
2017-10-31T01:43:27.518Z,8.5
2017-10-31T01:44:36.054Z,8.54
2017-10-31T01:45:44.939Z,8.53
2017-10-31T01:46:54.156Z,8.53
2017-10-31T01:48:02.694Z,8.46
2017-10-31T01:49:11.580Z,8.54
2017-10-31T01:50:20.782Z,8.5
2017-10-31T01:51:29.658Z,8.49
2017-10-31T01:52:38.532Z,8.52
2017-10-31T01:53:47.401Z,8.52
2017-10-31T01:54:55.938Z,8.61
2017-10-31T01:56:04.976Z,8.5
2017-10-31T01:57:14.188Z,8.53
2017-10-31T01:58:23.735Z,8.54
2017-10-31T01:59:32.276Z,8.57
2017-10-31T02:00:40.815Z,8.5
2017-10-31T02:01:50.095Z,8.53
2017-10-31T02:02:58.967Z,8.61
2017-10-31T02:04:07.844Z,8.52
2017-10-31T02:05:16.716Z,8.53
2017-10-31T02:06:25.938Z,8.54
2017-10-31T02:07:34.481Z,8.52
2017-10-31T02:08:43.020Z,8.57
2017-10-31T02:09:51.897Z,8.61
2017-10-31T02:11:00.432Z,8.57
2017-10-31T02:12:08.973Z,8.54
2017-10-31T02:13:17.846Z,8.53
2017-10-31T02:14:26.385Z,8.61
2017-10-31T02:15:35.257Z,8.58
2017-10-31T02:16:44.134Z,8.6
2017-10-31T02:17:53.008Z,8.57
2017-10-31T02:19:02.554Z,8.69
2017-10-31T02:20:11.091Z,8.6
2017-10-31T02:21:19.978Z,8.68
2017-10-31T02:22:28.515Z,8.58
2017-10-31T02:23:37.724Z,8.65
2017-10-31T02:24:46.964Z,8.65
2017-10-31T02:25:55.496Z,8.62
2017-10-31T02:27:05.048Z,8.6
2017-10-31T02:28:13.927Z,8.6
2017-10-31T02:29:23.137Z,8.6
2017-10-31T02:30:32.019Z,8.6
2017-10-31T02:31:41.230Z,8.52
2017-10-31T02:32:50.776Z,8.53
2017-10-31T02:33:59.326Z,8.6
2017-10-31T02:35:08.540Z,8.52
2017-10-31T02:36:17.075Z,8.53
2017-10-31T02:37:25.614Z,8.53
2017-10-31T02:38:34.828Z,8.6
2017-10-31T02:39:43.704Z,8.5
2017-10-31T02:40:52.577Z,8.54
2017-10-31T02:42:01.792Z,8.58
2017-10-31T02:43:10.665Z,8.47
2017-10-31T02:44:19.542Z,8.5
2017-10-31T02:45:28.420Z,8.49
2017-10-31T02:46:37.299Z,8.46
2017-10-31T02:47:46.172Z,8.5
2017-10-31T02:48:55.046Z,8.43
2017-10-31T02:50:03.926Z,8.43
2017-10-31T02:51:12.467Z,8.47
2017-10-31T02:52:21.340Z,8.43
2017-10-31T02:53:30.217Z,8.46
2017-10-31T02:54:38.755Z,8.43
2017-10-31T02:55:47.635Z,8.44
2017-10-31T02:56:56.517Z,8.43
2017-10-31T02:58:05.403Z,8.4
2017-10-31T02:59:14.288Z,8.52
2017-10-31T03:00:23.162Z,8.39
2017-10-31T03:01:31.700Z,8.39
2017-10-31T03:02:40.239Z,8.43
2017-10-31T03:03:49.450Z,8.46
2017-10-31T03:04:58.001Z,8.46
2017-10-31T03:06:06.528Z,8.4
2017-10-31T03:07:15.068Z,8.47
2017-10-31T03:08:23.608Z,8.47
2017-10-31T03:09:32.481Z,8.43
2017-10-31T03:10:41.363Z,8.43
2017-10-31T03:11:50.235Z,8.42
2017-10-31T03:12:58.774Z,8.39
2017-10-31T03:14:07.984Z,8.47
2017-10-31T03:15:16.858Z,8.43
2017-10-31T03:16:26.066Z,8.4
2017-10-31T03:17:34.949Z,8.42
2017-10-31T03:18:43.824Z,8.39
2017-10-31T03:19:53.374Z,8.43
2017-10-31T03:21:02.265Z,8.47
2017-10-31T03:22:10.790Z,8.46
2017-10-31T03:23:19.331Z,8.42
2017-10-31T03:24:28.204Z,8.46
2017-10-31T03:25:36.741Z,8.54
2017-10-31T03:26:45.617Z,8.53
2017-10-31T03:27:54.833Z,8.46
2017-10-31T03:29:03.713Z,8.5
2017-10-31T03:30:12.244Z,8.61
2017-10-31T03:31:21.121Z,8.54
2017-10-31T03:32:30.332Z,8.52
2017-10-31T03:33:39.204Z,8.5
2017-10-31T03:34:47.741Z,8.54
2017-10-31T03:35:56.614Z,8.53
2017-10-31T03:37:05.485Z,8.57
2017-10-31T03:38:14.025Z,8.54
2017-10-31T03:39:22.567Z,8.67
2017-10-31T03:40:31.776Z,8.64
2017-10-31T03:41:40.664Z,8.58
2017-10-31T03:42:49.872Z,8.6
2017-10-31T03:43:59.422Z,8.65
2017-10-31T03:45:08.296Z,8.6
2017-10-31T03:46:17.512Z,8.62
2017-10-31T03:47:27.397Z,8.64
2017-10-31T03:48:36.270Z,8.64
2017-10-31T03:49:45.144Z,8.64
2017-10-31T03:50:54.357Z,8.65
2017-10-31T03:52:02.897Z,8.62
2017-10-31T03:53:11.778Z,8.64
2017-10-31T03:54:20.662Z,8.67
2017-10-31T03:55:29.213Z,8.69
2017-10-31T03:56:38.073Z,8.64
2017-10-31T03:57:46.949Z,8.69
2017-10-31T03:58:55.481Z,8.69
2017-10-31T04:00:04.696Z,8.8
2017-10-31T04:01:13.569Z,8.71
2017-10-31T04:02:22.105Z,8.71
2017-10-31T04:03:30.644Z,8.77
2017-10-31T04:04:39.180Z,8.69
2017-10-31T04:05:48.395Z,8.76
2017-10-31T04:06:56.936Z,8.76
2017-10-31T04:08:05.473Z,8.79
2017-10-31T04:09:14.690Z,8.82
2017-10-31T04:10:23.230Z,8.72
2017-10-31T04:11:32.121Z,8.71
2017-10-31T04:12:40.657Z,8.74
2017-10-31T04:13:49.543Z,8.82
2017-10-31T04:14:58.750Z,8.76
2017-10-31T04:16:07.290Z,8.8
2017-10-31T04:17:15.831Z,8.77
2017-10-31T04:18:25.381Z,8.72
2017-10-31T04:19:34.260Z,8.82
2017-10-31T04:20:42.798Z,8.85
2017-10-31T04:21:51.672Z,8.77
2017-10-31T04:23:00.548Z,8.82
2017-10-31T04:24:09.765Z,8.79
2017-10-31T04:25:18.645Z,8.79
2017-10-31T04:26:27.184Z,8.76
2017-10-31T04:27:36.058Z,8.72
2017-10-31T04:28:44.930Z,8.72
2017-10-31T04:29:53.807Z,8.79
2017-10-31T04:31:02.343Z,8.76
2017-10-31T04:32:11.553Z,8.8
2017-10-31T04:33:20.093Z,8.72
2017-10-31T04:34:29.637Z,8.72
2017-10-31T04:35:38.511Z,8.74
2017-10-31T04:36:47.718Z,8.71
2017-10-31T04:37:56.588Z,8.76
2017-10-31T04:39:05.126Z,8.8
2017-10-31T04:40:13.998Z,8.71
2017-10-31T04:41:22.871Z,8.8
2017-10-31T04:42:31.749Z,8.74
2017-10-31T04:43:40.621Z,8.72
2017-10-31T04:44:49.161Z,8.74
2017-10-31T04:45:58.046Z,8.74
2017-10-31T04:47:06.583Z,8.83
2017-10-31T04:48:15.811Z,8.76
2017-10-31T04:49:24.684Z,8.76
2017-10-31T04:50:33.554Z,8.76
2017-10-31T04:51:42.432Z,8.85
2017-10-31T04:52:51.639Z,8.82
2017-10-31T04:54:00.180Z,8.83
2017-10-31T04:55:09.395Z,8.8
2017-10-31T04:56:18.275Z,8.9
2017-10-31T04:57:27.149Z,8.92
2017-10-31T04:58:36.359Z,8.87
2017-10-31T04:59:44.899Z,8.89
2017-10-31T05:00:53.833Z,8.79
2017-10-31T05:02:02.706Z,8.97
2017-10-31T05:03:11.577Z,8.86
2017-10-31T05:04:20.450Z,8.83
2017-10-31T05:05:28.989Z,8.9
2017-10-31T05:06:37.527Z,8.98
2017-10-31T05:07:46.070Z,8.94
2017-10-31T05:08:55.284Z,9
2017-10-31T05:10:04.491Z,8.86
2017-10-31T05:11:13.079Z,8.95
2017-10-31T05:12:21.954Z,8.94
2017-10-31T05:13:30.495Z,8.95
2017-10-31T05:14:40.055Z,8.89
2017-10-31T05:15:48.593Z,8.98
2017-10-31T05:16:57.133Z,8.9
2017-10-31T05:18:06.339Z,8.97
2017-10-31T05:19:14.879Z,9.03
2017-10-31T05:20:23.416Z,8.95
2017-10-31T05:21:32.625Z,8.92
2017-10-31T05:22:41.165Z,8.92
2017-10-31T05:23:50.042Z,8.9
2017-10-31T05:24:58.920Z,8.97
2017-10-31T05:26:07.795Z,8.98
2017-10-31T05:27:16.669Z,8.87
2017-10-31T05:28:26.221Z,9
2017-10-31T05:29:35.096Z,8.9
2017-10-31T05:30:43.986Z,8.9
2017-10-31T05:31:52.526Z,8.94
2017-10-31T05:33:01.735Z,8.97
2017-10-31T05:34:10.607Z,8.94
2017-10-31T05:35:19.815Z,8.9
2017-10-31T05:36:29.097Z,8.92
2017-10-31T05:37:38.291Z,8.95
2017-10-31T05:38:47.164Z,8.94
2017-10-31T05:39:56.038Z,8.86
2017-10-31T05:41:05.249Z,8.82
2017-10-31T05:42:14.796Z,8.86
2017-10-31T05:43:23.668Z,8.86
2017-10-31T05:44:32.885Z,8.82
2017-10-31T05:45:41.761Z,8.79
2017-10-31T05:46:50.971Z,8.82
2017-10-31T05:48:00.184Z,8.92
2017-10-31T05:49:09.055Z,8.85
2017-10-31T05:50:17.593Z,8.85
2017-10-31T05:51:27.142Z,8.82
2017-10-31T05:52:36.017Z,8.8
2017-10-31T05:53:44.888Z,8.94
2017-10-31T05:54:53.887Z,8.94
2017-10-31T05:56:03.097Z,8.97
2017-10-31T05:57:11.635Z,8.94
2017-10-31T05:58:20.176Z,8.89
2017-10-31T05:59:28.715Z,8.92
2017-10-31T06:00:37.252Z,8.9
2017-10-31T06:01:46.127Z,8.92
2017-10-31T06:02:54.663Z,8.9
2017-10-31T06:04:03.540Z,9.03
2017-10-31T06:05:12.077Z,9.01
2017-10-31T06:06:20.615Z,8.92
2017-10-31T06:07:29.157Z,8.9
2017-10-31T06:08:38.027Z,8.9
2017-10-31T06:09:47.240Z,8.89
2017-10-31T06:10:56.186Z,9
2017-10-31T06:12:04.723Z,8.9
2017-10-31T06:13:13.261Z,9.01
2017-10-31T06:14:21.801Z,9.04
2017-10-31T06:15:30.671Z,9.09
2017-10-31T06:16:39.883Z,9.08
2017-10-31T06:17:48.423Z,8.97
2017-10-31T06:18:57.298Z,9.05
2017-10-31T06:20:06.181Z,9.04
2017-10-31T06:21:15.063Z,9.01
2017-10-31T06:22:23.602Z,9.11
2017-10-31T06:23:32.143Z,9.05
2017-10-31T06:24:41.355Z,9.05
2017-10-31T06:25:49.891Z,9.08
2017-10-31T06:26:58.766Z,9.05
2017-10-31T06:28:07.301Z,9.03
2017-10-31T06:29:16.181Z,9.04
2017-10-31T06:30:25.055Z,9.04
2017-10-31T06:31:34.266Z,9.05
2017-10-31T06:32:43.138Z,9.08
2017-10-31T06:33:51.676Z,9.03
2017-10-31T06:35:00.885Z,9.05
2017-10-31T06:36:09.840Z,9.05
2017-10-31T06:37:18.832Z,9.11
2017-10-31T06:38:27.808Z,9.12
2017-10-31T06:39:36.681Z,9.12
2017-10-31T06:40:45.218Z,9.11
2017-10-31T06:41:53.756Z,9.09
2017-10-31T06:43:02.962Z,9.21
2017-10-31T06:44:11.501Z,9.11
2017-10-31T06:45:20.381Z,9.2
2017-10-31T06:46:28.913Z,9.16
2017-10-31T06:47:37.462Z,9.19
2017-10-31T06:48:46.661Z,9.14
2017-10-31T06:49:55.871Z,9.21
2017-10-31T06:51:04.746Z,9.26
2017-10-31T06:52:13.629Z,9.26
2017-10-31T06:53:22.165Z,9.29
2017-10-31T06:54:31.052Z,9.26
2017-10-31T06:55:39.641Z,9.19
2017-10-31T06:56:48.520Z,9.2
2017-10-31T06:57:57.738Z,9.29
2017-10-31T06:59:06.270Z,9.21
2017-10-31T07:00:15.142Z,9.21
2017-10-31T07:01:23.681Z,9.24
2017-10-31T07:02:32.557Z,9.24
2017-10-31T07:03:41.769Z,9.23
2017-10-31T07:04:50.652Z,9.19
2017-10-31T07:05:59.526Z,9.26
2017-10-31T07:07:08.401Z,9.27
2017-10-31T07:08:17.277Z,9.3
2017-10-31T07:09:25.816Z,9.32
2017-10-31T07:10:34.693Z,9.27
2017-10-31T07:11:43.567Z,9.32
2017-10-31T07:12:52.442Z,9.35
2017-10-31T07:14:01.651Z,9.34
2017-10-31T07:15:10.186Z,9.38
2017-10-31T07:16:18.722Z,9.34
2017-10-31T07:17:27.259Z,9.39
2017-10-31T07:18:36.138Z,9.38
2017-10-31T07:19:44.679Z,9.42
2017-10-31T07:20:53.553Z,9.35
2017-10-31T07:22:02.095Z,9.38
2017-10-31T07:23:10.972Z,9.39
2017-10-31T07:24:19.853Z,9.44
2017-10-31T07:25:29.065Z,9.5
2017-10-31T07:26:38.275Z,9.47
2017-10-31T07:27:47.487Z,9.52
2017-10-31T07:28:56.361Z,9.5
2017-10-31T07:30:05.237Z,9.56
2017-10-31T07:31:13.776Z,9.57
2017-10-31T07:32:22.660Z,9.53
2017-10-31T07:33:31.530Z,9.5
2017-10-31T07:34:40.401Z,9.57
2017-10-31T07:35:49.952Z,9.66
2017-10-31T07:36:58.870Z,9.67
2017-10-31T07:38:07.557Z,9.7
2017-10-31T07:39:16.136Z,9.67
2017-10-31T07:40:24.675Z,9.7
2017-10-31T07:41:33.551Z,9.67
2017-10-31T07:42:42.426Z,9.66
2017-10-31T07:43:51.297Z,9.7
2017-10-31T07:44:59.838Z,9.67
2017-10-31T07:46:09.047Z,9.71
2017-10-31T07:47:17.923Z,9.64
2017-10-31T07:48:26.806Z,9.64
2017-10-31T07:49:36.024Z,9.63
2017-10-31T07:50:44.554Z,9.66
2017-10-31T07:51:53.098Z,9.67
2017-10-31T07:53:02.329Z,9.7
2017-10-31T07:54:11.205Z,9.71
2017-10-31T07:55:20.416Z,9.67
2017-10-31T07:56:28.960Z,9.74
2017-10-31T07:57:38.167Z,9.78
2017-10-31T07:58:46.722Z,9.8
2017-10-31T07:59:55.600Z,9.84
2017-10-31T08:01:04.137Z,9.82
2017-10-31T08:02:13.124Z,9.9
2017-10-31T08:03:22.336Z,9.9
2017-10-31T08:04:31.229Z,9.93
2017-10-31T08:05:39.768Z,9.92
2017-10-31T08:06:48.650Z,10
2017-10-31T08:07:57.860Z,9.98
2017-10-31T08:09:07.073Z,10.02
2017-10-31T08:10:15.949Z,10.14
2017-10-31T08:11:24.489Z,10.13
2017-10-31T08:12:33.034Z,10.08
2017-10-31T08:13:42.271Z,10.18
2017-10-31T08:14:51.146Z,10.1
2017-10-31T08:16:00.026Z,10.11
2017-10-31T08:17:09.236Z,10.13
2017-10-31T08:18:18.109Z,10.07
2017-10-31T08:19:27.324Z,10.15
2017-10-31T08:20:35.863Z,10.15
2017-10-31T08:21:44.404Z,10.2
2017-10-31T08:22:52.946Z,10.17
2017-10-31T08:24:01.828Z,10.23
2017-10-31T08:25:10.715Z,10.26
2017-10-31T08:26:19.595Z,10.23
2017-10-31T08:27:28.135Z,10.31
2017-10-31T08:28:36.693Z,10.33
2017-10-31T08:29:45.903Z,10.39
2017-10-31T08:30:54.780Z,10.35
2017-10-31T08:32:03.654Z,10.38
2017-10-31T08:33:12.527Z,10.35
2017-10-31T08:34:21.741Z,10.44
2017-10-31T08:35:30.281Z,10.42
2017-10-31T08:36:39.490Z,10.44
2017-10-31T08:37:48.368Z,10.41
2017-10-31T08:38:56.907Z,10.39
2017-10-31T08:40:05.782Z,10.51
2017-10-31T08:41:14.996Z,10.51
2017-10-31T08:42:24.219Z,10.42
2017-10-31T08:43:33.460Z,10.49
2017-10-31T08:44:42.338Z,10.54
2017-10-31T08:45:51.216Z,10.55
2017-10-31T08:47:00.096Z,10.49
2017-10-31T08:48:09.503Z,10.61
2017-10-31T08:49:19.387Z,10.55
2017-10-31T08:50:27.926Z,10.58
2017-10-31T08:51:36.466Z,10.65
2017-10-31T08:52:46.023Z,10.67
2017-10-31T08:53:55.571Z,10.79
2017-10-31T08:55:04.453Z,10.7
2017-10-31T08:56:13.667Z,10.77
2017-10-31T08:57:22.546Z,10.79
2017-10-31T08:58:31.089Z,10.85
2017-10-31T08:59:39.963Z,10.84
2017-10-31T09:00:49.173Z,10.87
2017-10-31T09:01:57.713Z,10.9
2017-10-31T09:03:06.927Z,10.98
2017-10-31T09:04:16.482Z,10.97
2017-10-31T09:05:25.017Z,10.97
2017-10-31T09:06:33.942Z,11.08
2017-10-31T09:07:43.489Z,11.1
2017-10-31T09:08:52.712Z,11.24
2017-10-31T09:10:01.590Z,11.24
2017-10-31T09:11:10.468Z,11.2
2017-10-31T09:12:19.011Z,11.28
2017-10-31T09:13:27.964Z,11.27
2017-10-31T09:14:36.903Z,11.35
2017-10-31T09:15:45.779Z,11.3
2017-10-31T09:16:54.317Z,11.46
2017-10-31T09:18:02.855Z,11.41
2017-10-31T09:19:12.083Z,11.45
2017-10-31T09:20:21.049Z,11.53
2017-10-31T09:21:30.008Z,11.52
2017-10-31T09:22:38.721Z,11.46
2017-10-31T09:23:47.632Z,11.51
2017-10-31T09:24:56.736Z,11.52
2017-10-31T09:26:05.842Z,11.46
2017-10-31T09:27:14.532Z,11.48
2017-10-31T09:28:23.798Z,11.53
2017-10-31T09:29:33.344Z,11.6
2017-10-31T09:30:42.681Z,11.67
2017-10-31T09:31:51.639Z,11.59
2017-10-31T09:33:00.712Z,11.63
2017-10-31T09:34:09.767Z,11.7
2017-10-31T09:35:18.813Z,11.67
2017-10-31T09:36:27.408Z,11.73
2017-10-31T09:37:37.121Z,11.75
2017-10-31T09:38:46.551Z,11.76
2017-10-31T09:39:55.282Z,11.81
2017-10-31T09:41:04.234Z,11.86
2017-10-31T09:42:12.819Z,11.85
2017-10-31T09:43:21.690Z,12
2017-10-31T09:44:30.570Z,11.97
2017-10-31T09:45:39.449Z,11.98
2017-10-31T09:46:47.991Z,11.98
2017-10-31T09:47:56.887Z,11.98
2017-10-31T09:49:06.104Z,11.88
2017-10-31T09:50:14.646Z,11.98
2017-10-31T09:51:23.339Z,12.03
2017-10-31T09:52:32.557Z,12
2017-10-31T09:53:41.433Z,12.03
2017-10-31T09:54:50.311Z,11.97
2017-10-31T09:55:58.855Z,12.08
2017-10-31T09:57:07.739Z,12.11
2017-10-31T09:58:16.619Z,12.07
2017-10-31T09:59:25.161Z,12.05
2017-10-31T10:00:34.140Z,12.04
2017-10-31T10:01:43.360Z,12.05
2017-10-31T10:02:52.242Z,12.11
2017-10-31T10:04:00.787Z,12.15
2017-10-31T10:05:09.661Z,12.13
2017-10-31T10:06:18.882Z,12.18
2017-10-31T10:07:27.489Z,12.2
2017-10-31T10:08:36.703Z,12.26
2017-10-31T10:09:45.915Z,12.23
2017-10-31T10:10:54.796Z,12.19
2017-10-31T10:12:04.012Z,12.22
2017-10-31T10:13:12.887Z,12.29
2017-10-31T10:14:21.767Z,12.25
2017-10-31T10:15:30.979Z,12.25
2017-10-31T10:16:39.518Z,12.26
2017-10-31T10:17:48.728Z,12.28
2017-10-31T10:18:57.605Z,12.33
2017-10-31T10:20:06.482Z,12.31
2017-10-31T10:21:15.021Z,12.28
2017-10-31T10:22:23.562Z,12.33
2017-10-31T10:23:32.435Z,12.37
2017-10-31T10:24:41.313Z,12.31
2017-10-31T10:25:49.849Z,12.25
2017-10-31T10:26:58.392Z,12.44
2017-10-31T10:28:07.268Z,12.43
2017-10-31T10:29:16.143Z,12.41
2017-10-31T10:30:25.027Z,12.38
2017-10-31T10:31:33.907Z,12.48
2017-10-31T10:32:42.787Z,12.59
2017-10-31T10:33:51.664Z,12.52
2017-10-31T10:35:00.541Z,12.63
2017-10-31T10:36:09.417Z,12.59
2017-10-31T10:37:18.298Z,12.7
2017-10-31T10:38:27.504Z,12.7
2017-10-31T10:39:36.384Z,12.66
2017-10-31T10:40:45.598Z,12.66
2017-10-31T10:41:54.814Z,12.76
2017-10-31T10:43:03.356Z,12.77
2017-10-31T10:44:12.573Z,12.81
2017-10-31T10:45:21.450Z,12.83
2017-10-31T10:46:30.670Z,12.81
2017-10-31T10:47:39.209Z,12.8
2017-10-31T10:48:48.428Z,12.88
2017-10-31T10:49:57.971Z,12.8
2017-10-31T10:51:06.512Z,12.77
2017-10-31T10:52:15.410Z,12.77
2017-10-31T10:53:23.951Z,12.86
2017-10-31T10:54:33.165Z,12.78
2017-10-31T10:55:42.045Z,12.8
2017-10-31T10:56:50.922Z,12.81
2017-10-31T10:57:59.464Z,12.78
2017-10-31T10:59:09.013Z,12.81
2017-10-31T11:00:17.913Z,12.86
2017-10-31T11:01:26.790Z,12.92
2017-10-31T11:02:35.669Z,12.96
2017-10-31T11:03:44.551Z,13.01
2017-10-31T11:04:53.241Z,13.02
2017-10-31T11:06:02.450Z,13.01
2017-10-31T11:07:10.987Z,13.14
2017-10-31T11:08:19.527Z,13.16
2017-10-31T11:09:28.456Z,13.13
2017-10-31T11:10:37.334Z,13.17
2017-10-31T11:11:46.559Z,13.16
2017-10-31T11:12:55.769Z,13.21
2017-10-31T11:14:04.314Z,13.2
2017-10-31T11:15:13.203Z,13.21
2017-10-31T11:16:21.746Z,13.27
2017-10-31T11:17:31.300Z,13.14
2017-10-31T11:18:39.848Z,13.2
2017-10-31T11:19:48.728Z,13.27
2017-10-31T11:20:57.275Z,13.25
2017-10-31T11:22:06.148Z,13.21
2017-10-31T11:23:14.687Z,13.35
2017-10-31T11:24:23.228Z,13.31
2017-10-31T11:25:31.774Z,13.31
2017-10-31T11:26:40.670Z,13.32
2017-10-31T11:27:49.219Z,13.28
2017-10-31T11:28:58.424Z,13.31
2017-10-31T11:30:07.302Z,13.24
2017-10-31T11:31:15.841Z,13.2
2017-10-31T11:32:25.059Z,13.21
2017-10-31T11:33:34.280Z,13.19
2017-10-31T11:34:42.832Z,13.14
2017-10-31T11:35:51.366Z,13.17
2017-10-31T11:37:00.298Z,13.19
2017-10-31T11:38:09.160Z,13.2
2017-10-31T11:39:18.374Z,13.19
2017-10-31T11:40:27.598Z,13.19
2017-10-31T11:41:37.145Z,13.27
2017-10-31T11:42:46.359Z,13.25
2017-10-31T11:43:55.234Z,13.25
2017-10-31T11:45:04.124Z,13.39
2017-10-31T11:46:13.002Z,13.39
2017-10-31T11:47:21.558Z,13.44
2017-10-31T11:48:34.494Z,13.45
2017-10-31T11:49:43.707Z,13.54
2017-10-31T11:50:52.595Z,13.57
2017-10-31T11:52:01.473Z,13.58
2017-10-31T11:53:10.709Z,13.63
2017-10-31T11:54:19.586Z,13.78
2017-10-31T11:55:28.467Z,13.65
2017-10-31T11:56:37.350Z,13.81
2017-10-31T11:57:46.239Z,13.7
2017-10-31T11:58:55.121Z,13.87
2017-10-31T12:00:04.336Z,13.91
2017-10-31T12:01:12.880Z,13.93
2017-10-31T12:02:21.423Z,13.91
2017-10-31T12:03:29.966Z,13.91
2017-10-31T12:04:38.846Z,13.88
2017-10-31T12:05:47.725Z,13.97
2017-10-31T12:06:56.286Z,13.93
2017-10-31T12:08:05.165Z,13.87
2017-10-31T12:09:13.706Z,13.75
2017-10-31T12:10:22.586Z,13.7
2017-10-31T12:11:31.467Z,13.62
2017-10-31T12:12:40.351Z,13.63
2017-10-31T12:13:48.890Z,13.57
2017-10-31T12:14:57.966Z,13.57
2017-10-31T12:16:07.530Z,13.48
2017-10-31T12:17:16.408Z,13.45
2017-10-31T12:18:25.289Z,13.29
2017-10-31T12:19:34.167Z,13.28
2017-10-31T12:20:43.042Z,13.28
2017-10-31T12:21:51.580Z,13.2
2017-10-31T12:23:00.123Z,13.27
2017-10-31T12:24:09.004Z,13.19
2017-10-31T12:25:17.546Z,13.19
2017-10-31T12:26:26.767Z,13.13
2017-10-31T12:27:35.311Z,13.16
2017-10-31T12:28:44.191Z,13.19
2017-10-31T12:29:52.738Z,13.25
2017-10-31T12:31:02.294Z,13.21
2017-10-31T12:32:11.178Z,13.16
2017-10-31T12:33:20.394Z,13.14
2017-10-31T12:34:29.274Z,13.17
2017-10-31T12:35:38.488Z,13.24
2017-10-31T12:36:47.703Z,13.16
2017-10-31T12:37:56.585Z,13.2
2017-10-31T12:39:05.796Z,13.14
2017-10-31T12:40:15.017Z,13.24
2017-10-31T12:41:23.561Z,13.24
2017-10-31T12:42:32.449Z,13.24
2017-10-31T12:43:41.435Z,13.21
2017-10-31T12:44:49.978Z,13.16
2017-10-31T12:45:58.520Z,13.09
2017-10-31T12:47:07.400Z,13.25
2017-10-31T12:48:15.943Z,13.1
2017-10-31T12:49:24.487Z,13.19
2017-10-31T12:50:33.026Z,13.11
2017-10-31T12:51:41.907Z,13.19
2017-10-31T12:52:50.788Z,13.16
2017-10-31T12:53:59.329Z,13.16
2017-10-31T12:55:07.872Z,13.19
2017-10-31T12:56:16.413Z,13.16
2017-10-31T12:57:25.307Z,13.13
2017-10-31T12:58:33.850Z,13.27
2017-10-31T12:59:42.728Z,13.27
2017-10-31T13:00:51.269Z,13.28
2017-10-31T13:01:59.809Z,13.24
2017-10-31T13:03:08.356Z,13.21
2017-10-31T13:04:17.233Z,13.16
2017-10-31T13:05:25.773Z,13.29
2017-10-31T13:06:35.329Z,13.28
2017-10-31T13:07:44.545Z,13.19
2017-10-31T13:08:53.086Z,13.19
2017-10-31T13:10:01.970Z,13.27
2017-10-31T13:11:11.175Z,13.25
2017-10-31T13:12:20.057Z,13.28
2017-10-31T13:13:28.941Z,13.16
2017-10-31T13:14:37.830Z,13.2
2017-10-31T13:15:46.710Z,13.21
2017-10-31T13:16:55.921Z,13.25
2017-10-31T13:18:05.131Z,13.14
2017-10-31T13:19:14.023Z,13.13
2017-10-31T13:20:22.562Z,13.14
2017-10-31T13:21:31.773Z,13.01
2017-10-31T13:22:40.650Z,12.95
2017-10-31T13:23:49.865Z,12.96
2017-10-31T13:24:58.744Z,12.94
2017-10-31T13:26:07.633Z,12.92
2017-10-31T13:27:16.601Z,12.89
2017-10-31T13:28:25.181Z,12.91
2017-10-31T13:29:34.885Z,12.83
2017-10-31T13:30:44.771Z,12.81
2017-10-31T13:31:53.314Z,12.86
2017-10-31T13:33:01.857Z,12.77
2017-10-31T13:34:11.073Z,12.81
2017-10-31T13:35:19.949Z,12.81
2017-10-31T13:36:28.494Z,12.77
2017-10-31T13:37:37.040Z,12.73
2017-10-31T13:38:45.914Z,12.8
2017-10-31T13:39:54.456Z,12.74
2017-10-31T13:41:02.997Z,12.71
2017-10-31T13:42:12.219Z,12.8
2017-10-31T13:43:21.768Z,12.76
2017-10-31T13:44:30.647Z,12.84
2017-10-31T13:45:39.526Z,12.77
2017-10-31T13:46:48.070Z,12.8
2017-10-31T13:47:57.283Z,12.83
2017-10-31T13:49:05.827Z,12.76
2017-10-31T13:50:14.367Z,12.78
2017-10-31T13:51:23.582Z,12.77
2017-10-31T13:52:32.458Z,12.76
2017-10-31T13:53:41.001Z,12.78
2017-10-31T13:54:49.875Z,12.78
2017-10-31T13:55:58.418Z,12.8
2017-10-31T13:57:07.297Z,12.78
2017-10-31T13:58:16.176Z,12.78
2017-10-31T13:59:24.715Z,12.78
2017-10-31T14:00:33.255Z,12.77
2017-10-31T14:01:42.136Z,12.77
2017-10-31T14:02:51.350Z,12.8
2017-10-31T14:04:00.232Z,12.77
2017-10-31T14:05:09.166Z,12.76
2017-10-31T14:06:17.708Z,12.78
2017-10-31T14:07:26.931Z,12.8
2017-10-31T14:08:35.473Z,12.81
2017-10-31T14:09:44.018Z,12.69
2017-10-31T14:10:52.560Z,12.73
2017-10-31T14:12:01.104Z,12.74
2017-10-31T14:13:09.989Z,12.71
2017-10-31T14:14:18.870Z,12.65
2017-10-31T14:15:27.748Z,12.73
2017-10-31T14:16:36.962Z,12.71
2017-10-31T14:17:45.838Z,12.66
2017-10-31T14:18:55.062Z,12.7
2017-10-31T14:20:04.280Z,12.7
2017-10-31T14:21:13.161Z,12.63
2017-10-31T14:22:22.033Z,12.66
2017-10-31T14:23:30.574Z,12.7
2017-10-31T14:24:39.785Z,12.7
2017-10-31T14:25:48.673Z,12.63
2017-10-31T14:26:57.551Z,12.7
2017-10-31T14:28:06.431Z,12.59
2017-10-31T14:29:15.993Z,12.52
2017-10-31T14:30:24.860Z,12.58
2017-10-31T14:31:33.738Z,12.53
2017-10-31T14:32:42.279Z,12.53
2017-10-31T14:33:51.162Z,12.55
2017-10-31T14:35:00.042Z,12.53
2017-10-31T14:36:08.915Z,12.51
2017-10-31T14:37:17.792Z,12.53
2017-10-31T14:38:26.332Z,12.43
2017-10-31T14:39:35.216Z,12.45
2017-10-31T14:40:44.771Z,12.41
2017-10-31T14:41:54.032Z,12.43
2017-10-31T14:43:03.059Z,12.36
2017-10-31T14:44:11.602Z,12.26
2017-10-31T14:45:20.816Z,12.33
2017-10-31T14:46:29.695Z,12.34
2017-10-31T14:47:38.904Z,12.28
2017-10-31T14:48:47.595Z,12.28
2017-10-31T14:49:56.471Z,12.25
2017-10-31T14:51:05.015Z,12.25
2017-10-31T14:52:13.893Z,12.22
2017-10-31T14:53:23.106Z,12.26
2017-10-31T14:54:31.650Z,12.2
2017-10-31T14:55:40.529Z,12.2
2017-10-31T14:56:49.401Z,12.23
2017-10-31T14:57:58.280Z,12.15
2017-10-31T14:59:07.493Z,12.22
2017-10-31T15:00:16.370Z,12.22
2017-10-31T15:01:25.248Z,12.26
2017-10-31T15:02:34.128Z,12.22
2017-10-31T15:03:42.670Z,12.11
2017-10-31T15:04:51.882Z,12.1
2017-10-31T15:07:39.047Z,12.08
2017-10-31T15:08:47.924Z,12.18